Maryland METAR Reports


Distance/Direction noted is from Ellicott City, MD as the crow flies

KCBE - Cumberland - 118 miles WNW
Updated: Mon, 09/01/2014 7:06 AM
Overcast
Overcast
 Wind from calm
Wind: Calm
Temperature: 70°F
Dew Point: 68°F
Humidity: 94%
Barometer: 30.09 inHg
Clouds: Overcast
Visibility: 5 miles
Cloud Details: Partly Cloudy 3200 ft
Mostly Cloudy 3900 ft
Overcast 4700 ft
2014/09/01 11:06 KCBE 011106Z AUTO 00000KT 5SM SCT032 BKN039 OVC047 21/20 A3009 RMK AO1
KHGR - Hagerstown - 57 miles NW
Updated: Mon, 09/01/2014 6:53 AM
Mostly Cloudy
Mostly Cloudy
 Wind from calm
Wind: Calm
Temperature: 72°F
Dew Point: 72°F
Humidity: 100%
Barometer: 30.04 inHg
Clouds: Mostly Cloudy
Visibility: 10 miles
Cloud Details: Mostly Cloudy 5500 ft
Mostly Cloudy 9000 ft
2014/09/01 10:53 KHGR 011053Z 00000KT 10SM BKN055 BKN090 22/22 A3004 RMK AO2 RAE30 SLP177 P0000 T02220217
 
KFDK - Frederick - 34 miles NW
Updated: Mon, 09/01/2014 6:45 AM
Mostly Cloudy
Mostly Cloudy
 Wind from calm
Wind: Calm
Barometer: 30.06 inHg
Clouds: Mostly Cloudy
Visibility: 7 miles
Cloud Details: Partly Cloudy 5000 ft
Mostly Cloudy 7000 ft
2014/09/01 10:45 KFDK 011045Z 00000KT 7SM SCT050 BKN070 A3006
KGAI - Gaithersburg - 26 miles SW
Updated: Mon, 09/01/2014 6:55 AM
Mostly Cloudy
Mostly Cloudy
 Wind from calm
Wind: Calm
Temperature: 72°F
Dew Point: 70°F
Humidity: 94%
Barometer: 30.08 inHg
Clouds: Mostly Cloudy
Visibility: 8 miles
Cloud Details: Few Clouds 7000 ft
Mostly Cloudy 9500 ft
2014/09/01 10:55 KGAI 011055Z AUTO 00000KT 8SM FEW070 BKN095 22/21 A3008 RMK AO1
 
KBWI - BWI Airport - 15 miles SE
Updated: Mon, 09/01/2014 6:54 AM
Mist, Mostly cloudy
Mist, Mostly cloudy
 Wind from calm
Wind: Calm
Temperature: 73°F
Dew Point: 72°F
Humidity: 94%
Barometer: 30.03 inHg
Summary: Mist
Clouds: Mostly Cloudy
Visibility: 3 miles
Cloud Details: Few Clouds 1000 ft
Partly Cloudy 6500 ft
Mostly Cloudy 14000 ft
Mostly Cloudy 18000 ft
2014/09/01 10:54 KBWI 011054Z 00000KT 3SM BR FEW010 SCT065 BKN140 BKN180 23/22 A3003 RMK AO2 RAB20E35 SLP167 P0000 T02280222 $
KNAK - Annapolis - 32 miles SSE
Updated: Mon, 09/01/2014 6:54 AM
Few Clouds
Few Clouds
 Wind from calm
Wind: Calm
Temperature: 75°F
Dew Point: 72°F
Humidity: 89%
Barometer: 30.03 inHg
Clouds: Few Clouds
Visibility: 10 miles
Cloud Details: Few Clouds 7000 ft
2014/09/01 10:54 KNAK 011054Z AUTO 00000KT 10SM FEW070 24/22 A3003 RMK AO2 RAB25E44 SLP172 P0000 T02390222
 
KESN - Easton - 63 miles SE
Updated: Mon, 09/01/2014 6:45 AM
Mostly Cloudy
Mostly Cloudy
 Wind from calm
Wind: Calm
Temperature: 75°F
Dew Point: 75°F
Humidity: 100%
Barometer: 30.07 inHg
Clouds: Mostly Cloudy
Visibility: 10 miles
Cloud Details: Mostly Cloudy 10000 ft
2014/09/01 10:45 KESN 011045Z 00000KT 10SM BKN100 24/24 A3007
KSBY - Salisbury - 112 miles SE
Updated: Mon, 09/01/2014 6:54 AM
Mostly Cloudy
Mostly Cloudy
 Wind from SW
Wind: SW 5 mph
Temperature: 79°F
Dew Point: 73°F
Humidity: 84%
Barometer: 30.05 inHg
Clouds: Mostly Cloudy
Visibility: 10 miles
Cloud Details: Mostly Cloudy 9000 ft
2014/09/01 10:54 KSBY 011054Z 22004KT 10SM BKN090 26/23 A3005 RMK AO2 RAE00 SLP176 P0000 T02560233